Terminal Aerodrome Forecast
Issued by NWS Quad Cities IA IL

Home | Current Version | Previous Version | Text Only | Print | Product List | Glossary On
Versions: 1 2 3 4 5 6 7 8 9 10 11 12 13 14 15 16 17 18 19 20 21 22
000
FTUS43 KDVN 182300
TAFMLI
TAF
KMLI 182339Z 1900/1924 20011KT P6SM FEW040
     FM190600 22005KT 5SM BR BKN050 PROB30 1909/1913 3SM -TSRA BR
      BKN030CB
     FM191400 24008KT P6SM SCT040 SCT250
     FM191700 27011KT P6SM SCT250=

USA.gov is the U.S. government's official web portal to all federal, state and local government web resources and services.